Louisbourg, Canada
Current Conditions -  °F | °C
As of 4:00 AM on Wednesday 26 Nov 2014 (Local Time) from CYQY Reporting Station
Broken Clouds Broken Clouds  
Wind Chill:   Ceiling: 23000
Heat Index:   Visibility: 15mi
Dew Point: -1°   Wind: 12mph
Humidity: 57%   Direction: 290°WNW
Pressure: 29.97"   Gusts: 18mph
Location:  45.92°N, 59.98°W
Report Text: CYQY 260800Z 29010G16KT 15SM FEW030 BKN230 07/M01 A2997 RMK SC2CI5 SLP148
Loading
Personal Weather Stations






























Interactive Weather Map New forecast layout! Learn more

10-Day Weather Forecast

Advertisements
Track Severe Weather on mobile